• Join FlightAware (Why Join?)
  • Login
  • US Flag 
11:41AM EDT


 

Airport Tracker/Info


-or-


 

Live Flight TrackerFlight Track Log ✈ EIA5104 ✈ 20-Aug-2008 ✈ KPAE - KIAB

Flight Track Log - Related Links

Times and Time Zones

All times are in EDT time to prevent confusion due to time zone crossing. See the EIA5104 flight status page for this flight to view local times or setup timezone preferences in your user account.

Time Position Orientation Groundspeed Altitude Reporting Facility
EDT Latitude Longitude Course Direction KTS MPH feet Rate Location/Type
04:23PM 47.8772 -122.2840 164° South 489 563 2,300  Level Seattle Center
04:24PM 47.8361 -122.2660 112° Southeast 342 394 4,100 1,320 Climbing Seattle Center
04:25PM 47.8128 -122.1820 101° East 255 293 5,000 1,500 Climbing Seattle Center
04:26PM 47.7983 -122.0700 104° East 291 335 7,200 2,580 Climbing Seattle Center
04:27PM 47.7778 -121.9490 108° East 299 344 10,200 2,460 Climbing Seattle Center
04:28PM 47.7489 -121.8150 105° East 308 354 12,200 2,460 Climbing Seattle Center
04:29PM 47.7203 -121.6600 107° East 352 405 15,200 11,400 Climbing Seattle Center
04:30PM 47.6875 -121.4980 108° East 387 445 35,000 2,700 Climbing Seattle Center
04:31PM 47.6503 -121.3250 107° East 411 473 20,700 -6,000 Descending Seattle Center
04:32PM 47.6150 -121.1520 108° East 432 497 23,100 2,280 Climbing Seattle Center
04:33PM 47.5772 -120.9750 106° East 438 504 25,300 2,040 Climbing Seattle Center
04:34PM 47.5417 -120.7900 108° East 451 519 27,200 1,620 Climbing Seattle Center
04:35PM 47.4994 -120.5990 107° East 464 534 28,600 1,320 Climbing Seattle Center
04:36PM 47.4589 -120.4080 107° East 483 556 29,900 1,020 Climbing Seattle Center
04:37PM 47.4142 -120.1990 108° East 507 583 30,700 960 Climbing Seattle Center
04:38PM 47.3667 -119.9850 108° East 529 609 31,900 1,320 Climbing Seattle Center
04:39PM 47.3192 -119.7740 109° East 543 625 33,400 1,500 Climbing Seattle Center
04:40PM 47.2689 -119.5560 109° East 548 631 34,900 780 Climbing Seattle Center
04:41PM 47.2183 -119.3430 119° Southeast 548 631 35,000 180 Climbing Seattle Center
04:42PM 47.1444 -119.1450 118° Southeast 548 631 35,300 660 Climbing Seattle Center
04:43PM 47.0725 -118.9450 121° Southeast 548 631 36,400 840 Climbing Seattle Center
04:44PM 46.9939 -118.7520 119° Southeast 553 636 37,000 300 Climbing Seattle Center
04:45PM 46.9192 -118.5560 120° Southeast 553 636 37,000  Level Seattle Center
04:46PM 46.8422 -118.3600 120° Southeast 553 636 37,000  Level Seattle Center
04:47PM 46.7647 -118.1620 120° Southeast 553 636 37,000  Level Seattle Center
04:48PM 46.6889 -117.9740 120° Southeast 553 636 37,000  Level Seattle Center
04:49PM 46.6108 -117.7800 120° Southeast 548 631 37,000  Level Seattle Center
04:50PM 46.5325 -117.5870 121° Southeast 548 631 37,000  Level Seattle Center
04:51PM 46.4536 -117.3940 121° Southeast 548 631 37,000  Level Seattle Center
04:52PM 46.3747 -117.2050 121° Southeast 548 631 37,000  Level Seattle Center
04:53PM 46.2975 -117.0190 121° Southeast 548 631 37,000  Level Seattle Center
04:54PM 46.2178 -116.8280 122° Southeast 548 631 37,000  Level Seattle Center
04:56PM 46.1378 -116.6410 121° Southeast 548 631 37,000  Level Seattle Center
04:57PM 46.0397 -116.4070 116° Southeast 556 640 37,000  Level Seattle Center
04:58PM 45.9644 -116.1880 128° Southeast 556 640 37,000  Level Seattle Center
04:59PM 45.8758 -116.0230 122° Southeast 551 634 37,000  Level Seattle Center
05:00PM 45.7944 -115.8350 120° Southeast 556 640 37,000  Level Seattle Center
05:01PM 45.7083 -115.6230 121° Southeast 557 641 37,000  Level Salt Lake Center
05:02PM 45.6267 -115.4320 122° Southeast 564 649 37,000  Level Salt Lake Center
05:03PM 45.5503 -115.2600 122° Southeast 569 655 37,000  Level Salt Lake Center
05:04PM 45.4658 -115.0700 122° Southeast 569 655 37,000  Level Salt Lake Center
05:05PM 45.3756 -114.8620 123° Southeast 564 649 37,000  Level Salt Lake Center
05:06PM 45.2903 -114.6760 123° Southeast 564 649 37,000  Level Salt Lake Center
05:07PM 45.2128 -114.5060 123° Southeast 564 649 37,000  Level Salt Lake Center
05:08PM 45.1289 -114.3210 123° Southeast 569 655 37,000  Level Salt Lake Center
05:09PM 45.0350 -114.1180 124° Southeast 569 655 37,000  Level Salt Lake Center
05:10PM 44.9544 -113.9520 123° Southeast 568 654 37,000  Level Salt Lake Center
05:11PM 44.8600 -113.7510 123° Southeast 573 659 37,000  Level Salt Lake Center
05:12PM 44.7769 -113.5710 124° Southeast 560 644 37,000  Level Salt Lake Center
05:13PM 44.6897 -113.3920 126° Southeast 560 644 37,000  Level Salt Lake Center
05:14PM 44.6078 -113.2310 125° Southeast 561 646 37,000  Level Salt Lake Center
05:15PM 44.5097 -113.0370 125° Southeast 555 639 37,000  Level Salt Lake Center
05:16PM 44.4236 -112.8660 125° Southeast 555 639 37,000  Level Salt Lake Center
05:17PM 44.3350 -112.6910 126° Southeast 555 639 37,000  Level Salt Lake Center
05:18PM 44.2522 -112.5320 125° Southeast 555 639 37,000  Level Salt Lake Center
05:19PM 44.1553 -112.3380 129° Southeast 555 639 37,000  Level Salt Lake Center
05:20PM 44.0594 -112.1710 135° Southeast 550 633 37,000  Level Salt Lake Center
05:21PM 43.9736 -112.0530 136° Southeast 545 627 37,000  Level Salt Lake Center
05:22PM 43.8544 -111.8920 136° Southeast 540 621 37,000  Level Salt Lake Center
05:23PM 43.7331 -111.7320 135° Southeast 540 621 37,000  Level Salt Lake Center
05:24PM 43.6281 -111.5890 136° Southeast 545 627 37,000  Level Salt Lake Center
05:25PM 43.5289 -111.4590 136° Southeast 545 627 37,000  Level Salt Lake Center
05:26PM 43.4092 -111.3010 137° Southeast 545 627 37,000  Level Salt Lake Center
05:27PM 43.2786 -111.1310 137° Southeast 545 627 37,000  Level Salt Lake Center
05:28PM 43.1789 -111.0020 136° Southeast 545 627 37,000  Level Salt Lake Center
05:29PM 43.0583 -110.8420 137° Southeast 540 621 37,000  Level Salt Lake Center
05:30PM 42.9503 -110.7060 136° Southeast 540 621 37,000  Level Salt Lake Center
05:31PM 42.8458 -110.5670 137° Southeast 540 621 37,000  Level Salt Lake Center
05:32PM 42.7456 -110.4400 140° Southeast 540 621 37,000  Level Salt Lake Center
05:33PM 42.6328 -110.3110 137° Southeast 534 615 37,000  Level Salt Lake Center
05:34PM 42.5239 -110.1740 137° Southeast 534 615 37,000  Level Salt Lake Center
05:35PM 42.4022 -110.0230 137° Southeast 534 615 37,000  Level Salt Lake Center
05:36PM 42.2908 -109.8810 137° Southeast 539 620 37,000  Level Salt Lake Center
05:37PM 42.1919 -109.7560 137° Southeast 539 620 37,000  Level Salt Lake Center
05:38PM 42.0844 -109.6200 137° Southeast 544 626 37,000  Level Salt Lake Center
05:39PM 41.9619 -109.4690 138° Southeast 539 620 37,000  Level Salt Lake Center
05:40PM 41.8519 -109.3340 138° Southeast 539 620 37,000  Level Salt Lake Center
05:41PM 41.7525 -109.2140 136° Southeast 539 620 37,000  Level Salt Lake Center
05:42PM 41.6444 -109.0750 125° Southeast 539 620 37,000  Level Salt Lake Center
05:43PM 41.5481 -108.8940 122° Southeast 534 615 37,000  Level Salt Lake Center
05:43PM 41.4947 -108.7800 118° Southeast 536 617 37,000  Level Denver Center
05:45PM 41.4214 -108.5940 119° Southeast 520 598 37,000  Level Denver Center
05:46PM 41.3514 -108.4260 119° Southeast 520 598 37,000  Level Denver Center
05:47PM 41.2750 -108.2420 118° Southeast 515 593 37,000  Level Denver Center
05:48PM 41.2086 -108.0770 119° Southeast 510 587 37,000  Level Denver Center
05:49PM 41.1461 -107.9290 119° Southeast 510 587 37,000  Level Denver Center
05:50PM 41.0769 -107.7650 119° Southeast 504 580 37,000  Level Denver Center
05:51PM 41.0017 -107.5880 118° Southeast 504 580 37,000  Level Denver Center
05:52PM 40.9344 -107.4240 119° Southeast 512 589 37,000  Level Denver Center
05:53PM 40.8731 -107.2750 121° Southeast 507 583 37,000  Level Denver Center
05:54PM 40.7928 -107.0960 118° Southeast 515 593 37,000  Level Denver Center
05:55PM 40.7269 -106.9360 120° Southeast 509 586 37,000  Level Denver Center
05:56PM 40.6567 -106.7740 119° Southeast 504 580 37,000  Level Denver Center
05:57PM 40.5944 -106.6260 120° Southeast 513 590 37,000  Level Denver Center
05:58PM 40.5153 -106.4490 119° Southeast 507 583 37,000  Level Denver Center
05:59PM 40.4464 -106.2850 123° Southeast 507 583 37,000  Level Denver Center
06:00PM 40.3689 -106.1300 120° Southeast 507 583 37,000  Level Denver Center
06:01PM 40.2972 -105.9700 119° Southeast 513 590 37,000  Level Denver Center
06:02PM 40.2128 -105.7740 121° Southeast 505 581 37,000  Level Denver Center
06:03PM 40.1431 -105.6200 120° Southeast 505 581 37,000  Level Denver Center
06:04PM 40.0750 -105.4640 121° Southeast 500 575 37,000  Level Denver Center
06:05PM 40.0047 -105.3100 120° Southeast 500 575 37,000  Level Denver Center
06:06PM 39.9364 -105.1570 116° Southeast 494 568 37,000  Level Denver Center
06:07PM 39.8783 -104.9990 105° East 485 558 37,000  Level Denver Center
06:08PM 39.8469 -104.8480 107° East 485 558 37,000 360 Level Denver Center
06:09PM 39.8069 -104.6760 108° East 485 558 37,800 840 Climbing Denver Center
06:10PM 39.7644 -104.5040 110° East 496 571 38,700 600 Climbing Denver Center
06:11PM 39.7222 -104.3540 108° East 496 571 39,000 120 Climbing Denver Center
06:12PM 39.6706 -104.1530 109° East 491 565 39,000  Level Denver Center
06:13PM 39.6275 -103.9900 108° East 486 559 39,000  Level Denver Center
06:14PM 39.5861 -103.8270 109° East 476 548 39,000  Level Denver Center
06:15PM 39.5428 -103.6620 109° East 476 548 39,000  Level Denver Center
06:16PM 39.4992 -103.5020 109° East 476 548 39,000  Level Denver Center
06:17PM 39.4572 -103.3400 110° East 476 548 39,000  Level Denver Center
06:18PM 39.4108 -103.1760 109° East 481 554 39,000  Level Denver Center
06:19PM 39.3711 -103.0290 108° East 481 554 39,000  Level Denver Center
06:20PM 39.3308 -102.8680 111° Southeast 475 547 39,000  Level Denver Center
06:21PM 39.2769 -102.6910 109° East 475 547 39,000  Level Denver Center
06:22PM 39.2319 -102.5270 110° East 482 555 39,000  Level Denver Center
06:23PM 39.1867 -102.3640 109° East 482 555 39,000  Level Denver Center
06:24PM 39.1478 -102.2190 110° East 482 555 39,000  Level Denver Center
06:25PM 39.0972 -102.0370 110° East 482 555 39,000  Level Denver Center
06:26PM 39.0511 -101.8710 111° Southeast 482 555 39,000  Level Denver Center
06:27PM 39.0028 -101.7090 109° East 482 555 39,000  Level Denver Center
06:28PM 38.9694 -101.5850 110° East 470 541 39,000  Level Kansas City Center
06:29PM 38.9228 -101.4180 112° Southeast 471 542 39,000  Level Kansas City Center
06:30PM 38.8769 -101.2720 110° East 482 555 39,000  Level Kansas City Center
06:31PM 38.8300 -101.1080 111° Southeast 482 555 39,000  Level Kansas City Center
06:32PM 38.7769 -100.9300 110° East 482 555 39,000  Level Kansas City Center
06:33PM 38.7314 -100.7660 111° Southeast 482 555 39,000  Level Kansas City Center
06:34PM 38.6869 -100.6210 111° Southeast 482 555 39,000  Level Kansas City Center
06:35PM 38.6386 -100.4610 111° Southeast 482 555 39,000  Level Kansas City Center
06:36PM 38.5847 -100.2830 111° Southeast 482 555 39,000  Level Kansas City Center
06:37PM 38.5364 -100.1200 112° Southeast 487 560 39,000  Level Kansas City Center
06:38PM 38.4908 -99.9736 111° Southeast 492 566 39,000  Level Kansas City Center
06:39PM 38.4419 -99.8108 112° Southeast 487 560 39,000  Level Kansas City Center
06:40PM 38.3850 -99.6319 113° Southeast 493 567 39,000  Level Kansas City Center
06:41PM 38.3389 -99.4936 113° Southeast 488 562 39,000 -480 Level Kansas City Center
06:42PM 38.2869 -99.3342 111° Southeast 483 556 38,100 -900 Descending Kansas City Center
06:43PM 38.2372 -99.1722 111° Southeast 483 556 37,300 -1,140 Descending Kansas City Center
06:44PM 38.1889 -99.0158 111° Southeast 483 556 35,900 -1,680 Descending Kansas City Center
06:45PM 38.1422 -98.8653 112° Southeast 477 549 34,000 -2,040 Descending Kansas City Center
06:46PM 38.0936 -98.7119 113° Southeast 470 541 31,900 -1,500 Descending Kansas City Center
06:47PM 38.0444 -98.5617 112° Southeast 464 534 31,100 -900 Descending Kansas City Center
06:48PM 37.9972 -98.4139 112° Southeast 464 534 30,100 -1,800 Descending Kansas City Center
06:49PM 37.9519 -98.2719 112° Southeast 450 518 27,600 -3,000 Descending Kansas City Center
06:50PM 37.9042 -98.1250 113° Southeast 420 483 24,200 -3,360 Descending Kansas City Center
06:51PM 37.8658 -98.0125 97° East 396 456 20,900 -3,000 Descending Kansas City Center
06:52PM 37.8531 -97.8778 76° East 355 409 18,200 -2,700 Descending Kansas City Center
06:53PM 37.8750 -97.7631 64° Northeast 336 387 15,600 -2,640 Descending Kansas City Center
06:54PM 37.9133 -97.6619 58° Northeast 318 366 13,000 -2,400 Descending Kansas City Center
06:55PM 37.9572 -97.5744 54° Northeast 306 352 10,900 -2,100 Descending Kansas City Center
06:56PM 38.0031 -97.4944 76° East 283 326 8,800 -1,560 Descending Kansas City Center
06:57PM 38.0197 -97.4081 86° East 260 299 7,800 -1,140 Descending Kansas City Center
06:58PM 38.0236 -97.3344 100° East 228 262 6,600 -1,320 Descending Kansas City Center
06:59PM 38.0147 -97.2683 104° East 204 235 5,200 -840 Descending Kansas City Center
07:00PM 38.0017 -97.2044 120° Southeast 193 222 5,000 -600 Descending Kansas City Center
07:01PM 37.9778 -97.1511 204° Southwest 182 209 4,000 -660 Descending Kansas City Center
07:02PM 37.9250 -97.1808 204° Southwest 137 158 3,700 -300 Descending Kansas City Center